Aeroporto :
LOGIN :

Iscrizione | Disclaimer

   EN    FR    IT 

 










Sommario :    VFR   VFR Marginale   IFR   IFR Intensivo   IFR Molto Intensivo
Visibilità : 
Base nubi : 
>= 8 km
>= 3000ft
5 / 8 km
1000 / 3000 ft
1500m / 5 km
500 / 1000 ft
800 / 1500m
200 / 500 ft
< 800m
< 200 ft
Simboli :   Temporali  Nebbia  Neve Forte  Precipitazioni Forti  Vento > 20 kt
SIGMETs :   Varie  Temporali  Ghiacco  Turbolenza  Onda orograficha  Ceneri Vulcaniche






- Altitudine del aeroporto : 614 ft
- Codice IATA : CRL


EBCI - Charleroi

ULTIMO METAR :
  • 061820Z 21015G25KT 5000 -RADZ BR BKN005 BKN007 06/05 Q1008 TEMPO 20018G30KT 2000 SHRA BR

METARs OBSOLETI :
  • 061750Z 20015KT 3500 -RADZ BR FEW003 BKN005 BKN007 05/04 Q1008 TEMPO 20018G30KT 2000 SHRA BR BKN005
  • 061720Z 20018G30KT 3500 -RADZ BR FEW003 BKN005 BKN007 05/05 Q1008 TEMPO 20018G30KT 2000 SHRA BR BKN005
  • 061650Z 20016KT 2500 -RADZ BR FEW003 BKN005 BKN007 05/04 Q1008 TEMPO 20018G30KT 2000 SHRA BR BKN005
  • 061620Z 21016KT 3500 -RADZ BR FEW003 BKN005 BKN007 05/04 Q1008 TEMPO 20018G30KT 2000 SHRA BR BKN005
  • 061550Z 20019KT 2500 RADZ BR FEW003 BKN005 BKN007 05/04 Q1008 TEMPO 20018G30KT 2000 SHRA BR BKN005

TAF TAF EBCI
Valido dal 06 a 18 ore il 08 a 00 ore UTC


061710Z 0618/0724 22015KT 9999 SCT007 BKN011
TEMPO 0618/0620 21018G28KT 3000 -DZ BKN005
PROB30
TEMPO 0619/0621 23020G35KT 4000 SCT006 BKN011TCU
BECMG 0622/0624 BKN016
PROB40
TEMPO 0700/0707 BKN007



MetMap, La meteo Aeronautica in un colpo d'occhio ! - Copyright ORBIFLY Dicembre 2007 - Disclaimer

ORBIFLY MET'MAP TEAM :

Programmazione e sviluppo : Alexandra Zaïnal
Concezione : Baudouin d'Aumeries
Aiuto per la programmazione : Marc-Olivier Méhu
Supporto tecnico e logistico : Manuel Goepfert
Aiuto per la traduzione : Arnaldo La Scala

Contatto : metmap@orbifly.com




FONTI E CREDITI :

   NOAA